Terminal Aerodrome Forecast
Issued by NWS Charleston, WV

Current Version | Previous Version | Graphics & Text | Print | Product List | Glossary On
Versions: 1 2 3 4 5 6 7 8 9 10 11 12 13 14 15 16 17 18 19 20 21 22 23 24 25 26 27 28 29 30 31 32
000
FTUS41 KRLX 230920 AAB
TAFHTS
TAF AMD
KHTS 230920Z 2309/2406 00000KT 2SM BR BKN002 OVC040
     FM231400 VRB02KT 5SM SHRA BR BKN025
     FM231700 21006KT P6SM BKN030
     FM232100 20005KT P6SM BKN050=

USA.gov is the U.S. government's official web portal to all federal, state and local government web resources and services.